»·PEaware :: N305EL KSEA-KOTH

N305EL :: KSEA-KOTH

FLIGHT INFORMATION

Flight Status: Arrived
Operator: Privately registered:
United States
More flights under this callsign
Pilot: Cullen C. (26241)
Aircraft: BEECH AIRCRAFT A90-E90 KING AIR
(BE9L)
More flights by this aircraft type
Origin: KSEA Seattle-Tacoma Intl
United States
Destination: KOTH North Bend Mun
United States
More flights between these airports :: More routes between these airports
Route: SEA V27 SANDR OTH
File this flight plan on PilotEdge
Remarks:
Altitude:
(Current/Filed)
15,000ft
Speed:
(Current/Filed)
200kts
Departed: 08-Feb-21 04:38 PM
Arrived: 08-Feb-21 05:46 PM
Distance/Time
Traveled:
255nm/1:08
Distance/Time
To Go:
Arrived

Flight Plot

Page will automatically refresh every two minutes.

Flight plan parsing failed; only flown route is shown


Map Options




Map Legend


Flown Route
Filed Route
Departure Airport
Arrival Airport
Navaid (VOR, NDB)
Fix

Horizontal Profiles

Position Reports

Time Latitude Longitude Heading Altitude Ground
Speed
08-Feb-21 16:19 47.438371 -122.315202 2 345ft 0kts
08-Feb-21 16:20 47.438371 -122.315202 2 345ft 0kts
08-Feb-21 16:21 47.438371 -122.315202 2 345ft 0kts
08-Feb-21 16:22 47.438371 -122.315202 2 345ft 0kts
08-Feb-21 16:23 47.438371 -122.315202 2 345ft 0kts
08-Feb-21 16:24 47.438371 -122.315202 2 345ft 0kts
08-Feb-21 16:25 47.438371 -122.315202 2 345ft 0kts
08-Feb-21 16:26 47.438371 -122.315202 2 345ft 0kts
08-Feb-21 16:27 47.438371 -122.315202 2 345ft 0kts
08-Feb-21 16:28 47.438371 -122.315202 2 345ft 0kts
08-Feb-21 16:29 47.438371 -122.315202 2 345ft 0kts
08-Feb-21 16:30 47.438503 -122.315196 3 345ft 6kts
08-Feb-21 16:31 47.438997 -122.313791 31 351ft 13kts
08-Feb-21 16:32 47.443516 -122.313590 0 367ft 16kts
08-Feb-21 16:33 47.448048 -122.313537 0 385ft 22kts
08-Feb-21 16:34 47.454373 -122.313459 0 392ft 29kts
08-Feb-21 16:35 47.455028 -122.312756 85 398ft 0kts
08-Feb-21 16:36 47.455028 -122.312755 85 398ft 0kts
08-Feb-21 16:37 47.443315 -122.310937 180 795ft 145kts
08-Feb-21 16:38 47.405879 -122.310479 181 3078ft 141kts
08-Feb-21 16:39 47.385390 -122.263402 48 3004ft 211kts
08-Feb-21 16:40 47.423426 -122.217936 97 3002ft 203kts
08-Feb-21 16:41 47.383797 -122.192530 179 3011ft 170kts
08-Feb-21 16:42 47.341247 -122.188439 179 3010ft 163kts
08-Feb-21 16:43 47.299644 -122.184462 183 3006ft 161kts
08-Feb-21 16:44 47.260488 -122.210750 208 3007ft 159kts
08-Feb-21 16:45 47.219795 -122.240628 209 3528ft 191kts
08-Feb-21 16:46 47.168458 -122.278342 209 4531ft 220kts
08-Feb-21 16:47 47.141582 -122.347262 276 5607ft 211kts
08-Feb-21 16:48 47.145006 -122.432424 272 7141ft 197kts
08-Feb-21 16:50 47.146817 -122.505233 272 8516ft 190kts
08-Feb-21 16:51 47.148388 -122.574330 272 9857ft 185kts
08-Feb-21 16:52 47.149903 -122.644060 273 11216ft 200kts
08-Feb-21 16:53 47.151467 -122.717657 273 12573ft 192kts
08-Feb-21 16:54 47.152901 -122.787047 274 13962ft 178kts
08-Feb-21 16:55 47.154259 -122.854032 274 15007ft 184kts
08-Feb-21 16:56 47.155817 -122.932555 274 15012ft 213kts
08-Feb-21 16:57 47.157513 -123.022715 274 15000ft 221kts
08-Feb-21 16:58 47.159232 -123.118399 274 14988ft 223kts
08-Feb-21 16:59 47.112580 -123.176225 199 14986ft 258kts
08-Feb-21 17:00 47.040130 -123.198144 198 14986ft 259kts
08-Feb-21 17:01 46.966861 -123.219115 198 14993ft 258kts
08-Feb-21 17:02 46.896541 -123.239137 198 14997ft 257kts
08-Feb-21 17:03 46.826971 -123.258889 198 15002ft 256kts
08-Feb-21 17:03 46.769758 -123.275095 198 15010ft 256kts
08-Feb-21 17:05 46.689112 -123.297879 198 15020ft 256kts
08-Feb-21 17:06 46.619805 -123.317404 198 15020ft 256kts
08-Feb-21 17:06 46.562307 -123.333562 198 15020ft 256kts
08-Feb-21 17:08 46.482047 -123.356062 198 15020ft 256kts
08-Feb-21 17:08 46.424288 -123.372212 198 15020ft 256kts
08-Feb-21 17:09 46.354716 -123.391617 198 15021ft 256kts
08-Feb-21 17:11 46.273497 -123.414209 198 15024ft 256kts
08-Feb-21 17:11 46.215286 -123.430357 198 15025ft 256kts
08-Feb-21 17:12 46.145244 -123.449744 198 15023ft 256kts
08-Feb-21 17:13 46.075176 -123.469086 198 15022ft 256kts
08-Feb-21 17:14 46.005397 -123.488302 198 15013ft 257kts
08-Feb-21 17:15 45.935199 -123.507578 198 15009ft 257kts
08-Feb-21 17:16 45.865703 -123.526612 198 15007ft 256kts
08-Feb-21 17:17 45.795934 -123.545674 198 15010ft 256kts
08-Feb-21 17:18 45.727714 -123.569358 221 15021ft 243kts
08-Feb-21 17:19 45.647264 -123.605589 197 15015ft 256kts
08-Feb-21 17:20 45.508419 -123.641902 197 15014ft 256kts
08-Feb-21 17:21 45.369304 -123.678124 197 15026ft 257kts
08-Feb-21 17:22 45.228109 -123.714702 197 15026ft 258kts
08-Feb-21 17:23 45.087799 -123.750891 196 15027ft 258kts
08-Feb-21 17:24 44.946368 -123.787171 195 15033ft 259kts
08-Feb-21 17:25 44.804235 -123.823414 195 15028ft 259kts
08-Feb-21 17:26 44.662593 -123.859378 195 15031ft 259kts
08-Feb-21 17:27 44.521423 -123.895043 195 15031ft 260kts
08-Feb-21 17:28 44.378681 -123.930934 195 15032ft 260kts
08-Feb-21 17:29 44.236516 -123.966495 195 15033ft 260kts
08-Feb-21 17:30 44.174398 -123.981979 195 15033ft 260kts
08-Feb-21 17:31 44.031979 -124.017354 195 15033ft 260kts
08-Feb-21 17:32 43.892113 -124.053030 200 14610ft 239kts
08-Feb-21 17:33 43.772933 -124.101425 202 13566ft 213kts
08-Feb-21 17:34 43.662002 -124.146993 201 12546ft 205kts
08-Feb-21 17:35 43.553678 -124.191312 201 11536ft 203kts
08-Feb-21 17:36 43.445083 -124.235590 200 10527ft 203kts
08-Feb-21 17:37 43.371155 -124.177780 106 7989ft 148kts
08-Feb-21 17:38 43.345348 -124.086535 118 5966ft 128kts
08-Feb-21 17:39 43.290142 -124.059293 210 3229ft 128kts
08-Feb-21 17:40 43.288207 -124.122480 302 3485ft 120kts
08-Feb-21 17:41 43.338910 -124.181760 335 1935ft 116kts
08-Feb-21 17:42 43.363204 -124.201998 334 1280ft 98kts
08-Feb-21 17:43 43.386090 -124.219942 334 833ft 89kts
08-Feb-21 17:44 43.408036 -124.236936 333 50ft 78kts
08-Feb-21 17:45 43.415561 -124.242909 295 16ft 21kts
08-Feb-21 17:46 43.415369 -124.243846 241 18ft 0kts
08-Feb-21 17:47 43.414840 -124.244663 57 21ft 0kts
08-Feb-21 17:48 43.414840 -124.244663 57 21ft 0kts

Navigation Log

Ident Type
Flight plan parsing failed, navigation log unavailable